Time;durP1;ratioP1;P1;durP2;ratioP2;P2;SDS_P1;SDS_P2;PMS_P1;PMS_P2;Temp;Humidity;BMP_temperature;BMP_pressure;BME280_temperature;BME280_humidity;BME280_pressure;Samples;Min_cycle;Max_cycle;Signal;HPM_P1;HPM_P2
2023/09/20 00:00:27;;;;;;;;;;;;;;;17.23;nan;100153.19;5033681;28;19923;-88
2023/09/20 00:02:53;;;;;;;;;;;;;;;17.23;nan;100159.34;5035162;28;19916;-88
2023/09/20 00:05:21;;;;;;;;;;;;;;;17.25;nan;100156.47;5037336;28;19920;-87
2023/09/20 00:07:46;;;;;;;;;;;;;;;17.23;nan;100158.53;5037631;28;19920;-87
2023/09/20 00:10:15;;;;;;;;;;;;;;;17.19;nan;100144.78;5036597;28;19921;-87
2023/09/20 00:12:40;;;;;;;;;;;;;;;17.17;nan;100150.31;5036457;28;19917;-87
2023/09/20 00:15:07;;;;;;;;;;;;;;;17.16;nan;100155.84;5018537;28;19917;-87
2023/09/20 00:17:34;;;;;;;;;;;;;;;17.10;nan;100133.44;5017579;28;19959;-88
2023/09/20 00:20:04;;;;;;;;;;;;;;;;;;5036336;28;20453;-88
2023/09/20 00:22:29;;;;;;;0.10;0.10;;;;;;;;;;5016653;28;19964;-88
2023/09/20 00:24:55;;;;;;;0.10;0.10;;;;;;;;;;5027473;28;20042;-88
2023/09/20 00:27:20;;;;;;;0.10;0.10;;;;;;;-145.28;100.00;65941.84;5026089;28;20799;-88
2023/09/20 00:29:46;;;;;;;0.00;0.00;;;;;;;-145.28;100.00;65941.84;5017397;28;20458;-87
2023/09/20 00:32:11;;;;;;;0.10;0.10;;;;;;;;;;5015146;28;20418;-87
2023/09/20 00:34:36;;;;;;;0.10;0.10;;;;;;;;;;5018663;28;20033;-87
2023/09/20 00:37:02;;;;;;;0.10;0.10;;;;;;;;;;5019357;28;20041;-88
2023/09/20 00:39:27;;;;;;;0.10;0.10;;;;;;;;;;5017317;28;20399;-87
2023/09/20 00:41:52;;;;;;;0.10;0.10;;;;;;;;;;5018912;28;20041;-87
2023/09/20 00:44:17;;;;;;;0.10;0.10;;;;;;;;;;5017449;28;20030;-87
2023/09/20 00:46:44;;;;;;;0.10;0.10;;;;;;;;;;5032520;28;20268;-86
2023/09/20 00:49:09;;;;;;;0.10;0.10;;;;;;;;;;5033058;28;20285;-87
2023/09/20 00:51:34;;;;;;;0.10;0.10;;;;;;;;;;5033941;28;20045;-87
2023/09/20 00:54:04;;;;;;;0.10;0.10;;;;;;;;;;5015764;28;20399;-90
2023/09/20 00:56:29;;;;;;;0.10;0.10;;;;;;;;;;5016018;28;20037;-86
2023/09/20 00:58:56;;;;;;;0.00;0.00;;;;;;;;;;5015611;28;20657;-87
2023/09/20 01:01:22;;;;;;;0.10;0.10;;;;;;;;;;5035501;28;20507;-86
2023/09/20 01:03:47;;;;;;;0.00;0.00;;;;;;;;;;5033347;28;20396;-87
2023/09/20 01:06:15;;;;;;;0.00;0.00;;;;;;;;;;5012018;28;20533;-87
2023/09/20 01:08:41;;;;;;;0.10;0.10;;;;;;;17.91;nan;100193.09;5031464;28;20342;-88
2023/09/20 01:11:07;;;;;;;0.10;0.10;;;;;;;;;;5013925;28;20057;-87
2023/09/20 01:13:32;;;;;;;0.10;0.10;;;;;;;;;;5032087;28;20034;-87
2023/09/20 01:16:01;;;;;;;0.10;0.10;;;;;;;;;;5015066;28;20076;-88
2023/09/20 01:18:27;;;;;;;0.10;0.10;;;;;;;;;;5013470;28;20071;-87
2023/09/20 01:20:52;;;;;;;0.10;0.10;;;;;;;;;;5014747;28;20037;-88
2023/09/20 01:23:17;;;;;;;0.10;0.10;;;;;;;17.75;nan;100101.53;5015366;28;20065;-87
2023/09/20 01:25:43;;;;;;;0.10;0.10;;;;;;;;;;5015149;28;20048;-87
2023/09/20 01:28:09;;;;;;;0.10;0.10;;;;;;;;;;5014003;28;20407;-87
2023/09/20 01:30:41;;;;;;;0.10;0.10;;;;;;;17.71;nan;100107.50;5017159;28;20037;-87
2023/09/20 01:33:07;;;;;;;0.10;0.10;;;;;;;;;;5037021;28;20045;-87
2023/09/20 01:35:33;;;;;;;0.10;0.10;;;;;;;17.70;nan;100101.34;5014675;28;20547;-87
2023/09/20 01:37:59;;;;;;;0.10;0.10;;;;;;;;;;5032045;28;20053;-87
2023/09/20 01:40:26;;;;;;;0.10;0.10;;;;;;;;;;5033870;28;20032;-87
2023/09/20 01:42:53;;;;;;;0.10;0.10;;;;;;;17.61;nan;100071.34;5032229;28;20546;-87
2023/09/20 01:45:21;;;;;;;0.10;0.10;;;;;;;;;;5015075;28;20124;-87
2023/09/20 01:47:49;;;;;;;0.10;0.10;;;;;;;17.58;nan;100108.34;5018617;28;20033;-87
2023/09/20 01:50:19;;;;;;;0.10;0.10;;;;;;;;;;5015638;28;20065;-87
2023/09/20 01:52:46;;;;;;;0.10;0.10;;;;;;;;;;5016271;28;20029;-87
2023/09/20 01:55:15;;;;;;;0.10;0.10;;;;;;;;;;5016277;28;20041;-88
2023/09/20 01:57:45;;;;;;;0.10;0.10;;;;;;;;;;5015032;28;20029;-87
2023/09/20 02:00:16;;;;;;;0.10;0.10;;;;;;;;;;5016998;28;20034;-88
2023/09/20 02:02:43;;;;;;;0.10;0.10;;;;;;;17.49;nan;100099.72;5033080;28;20044;-87
2023/09/20 02:05:10;;;;;;;0.10;0.10;;;;;;;;;;5015698;28;20037;-87
2023/09/20 02:07:35;;;;;;;0.10;0.10;;;;;;;;;;5033498;28;20070;-87
2023/09/20 02:10:00;;;;;;;0.10;0.10;;;;;;;17.46;nan;100110.84;5015614;28;20120;-88
2023/09/20 02:12:25;;;;;;;0.10;0.10;;;;;;;;;;5032297;28;20065;-87
2023/09/20 02:14:51;;;;;;;0.10;0.10;;;;;;;17.46;nan;100110.03;5010035;28;20092;-88
2023/09/20 02:17:17;;;;;;;0.10;0.10;;;;;;;;;;5033440;28;20041;-88
2023/09/20 02:19:45;;;;;;;0.10;0.10;;;;;;;;;;5035464;28;20108;-87
2023/09/20 02:22:12;;;;;;;0.10;0.10;;;;;;;;;;5011632;28;20034;-88
2023/09/20 02:24:38;;;;;;;0.10;0.10;;;;;;;;;;5030542;28;20037;-88
2023/09/20 02:27:08;;;;;;;0.10;0.10;;;;;;;;;;5015134;28;20414;-88
2023/09/20 02:29:33;;;;;;;0.10;0.10;;;;;;;;;;5014841;28;20082;-88
2023/09/20 02:32:00;;;;;;;0.10;0.10;;;;;;;;;;5014786;28;20046;-88
2023/09/20 02:34:25;;;;;;;0.10;0.10;;;;;;;;;;5031679;28;20041;-88
2023/09/20 02:36:51;;;;;;;0.10;0.10;;;;;;;;;;5022158;28;20132;-88
2023/09/20 02:39:18;;;;;;;0.10;0.10;;;;;;;;;;5032630;28;20033;-88
2023/09/20 02:41:43;;;;;;;0.10;0.10;;;;;;;17.40;nan;100101.81;5013180;28;20443;-88
2023/09/20 02:44:09;;;;;;;0.10;0.10;;;;;;;;;;5013545;28;20299;-88
2023/09/20 02:46:34;;;;;;;0.10;0.10;;;;;;;;;;5014332;28;20029;-87
2023/09/20 02:48:59;;;;;;;0.10;0.10;;;;;;;;;;5017171;28;20037;-87
2023/09/20 02:51:24;;;;;;;0.10;0.10;;;;;;;;;;5014104;28;20454;-88
2023/09/20 02:53:50;;;;;;;0.10;0.10;;;;;;;;;;5013796;28;20288;-88
2023/09/20 02:56:15;;;;;;;0.07;0.07;;;;;;;;;;5005117;28;20454;-88
2023/09/20 02:58:40;;;;;;;0.10;0.10;;;;;;;;;;5013688;28;20033;-88
2023/09/20 03:01:08;;;;;;;0.10;0.10;;;;;;;;;;5013478;28;20443;-87
2023/09/20 03:03:34;;;;;;;0.10;0.10;;;;;;;;;;5034130;28;20203;-88
2023/09/20 03:06:06;;;;;;;0.10;0.10;;;;;;;;;;5013730;28;20053;-87
2023/09/20 03:08:33;;;;;;;0.10;0.10;;;;;;;;;;5030908;28;20049;-88
2023/09/20 03:10:59;;;;;;;0.10;0.10;;;;;;;;;;5015295;28;20037;-87
2023/09/20 03:13:26;;;;;;;0.10;0.10;;;;;;;;;;5037096;28;20123;-87
2023/09/20 03:15:54;;;;;;;0.10;0.10;;;;;;;;;;5018852;28;20052;-88
2023/09/20 03:18:22;;;;;;;0.10;0.10;;;;;;;;;;5017642;28;20049;-87
2023/09/20 03:20:48;;;;;;;0.10;0.10;;;;;;;;;;5019118;28;20491;-87
2023/09/20 03:23:14;;;;;;;0.10;0.10;;;;;;;;;;5031545;28;20038;-88
2023/09/20 03:25:39;;;;;;;0.10;0.10;;;;;;;;;;5037353;28;20061;-87
2023/09/20 03:28:07;;;;;;;0.10;0.10;;;;;;;;;;5026949;28;20895;-87
2023/09/20 03:30:33;;;;;;;0.10;0.10;;;;;;;;;;5036244;28;20038;-88
2023/09/20 03:32:58;;;;;;;0.10;0.10;;;;;;;;;;5041163;28;20052;-88
2023/09/20 03:35:24;;;;;;;0.10;0.10;;;;;;;;;;5018996;28;20041;-88
2023/09/20 03:37:49;;;;;;;0.10;0.10;;;;;;;;;;5038238;28;20036;-88
2023/09/20 03:40:19;;;;;;;0.10;0.10;;;;;;;;;;5029726;28;20040;-88
2023/09/20 03:42:45;;;;;;;0.10;0.10;;;;;;;;;;5042650;28;20029;-87
2023/09/20 03:45:11;;;;;;;0.05;0.05;;;;;;;;;;5023621;28;20041;-88
2023/09/20 03:47:39;;;;;;;0.10;0.10;;;;;;;;;;5017097;28;20036;-88
2023/09/20 03:50:07;;;;;;;0.10;0.10;;;;;;;;;;5019598;28;20117;-87
2023/09/20 03:52:32;;;;;;;0.10;0.10;;;;;;;;;;5019450;28;20057;-88
2023/09/20 03:54:57;;;;;;;0.10;0.10;;;;;;;;;;5037150;28;20025;-88
2023/09/20 03:57:24;;;;;;;0.10;0.10;;;;;;;;;;5036923;28;20217;-88
2023/09/20 03:59:53;;;;;;;0.10;0.10;;;;;;;;;;5047302;28;20045;-87
2023/09/20 04:02:18;;;;;;;0.10;0.10;;;;;;;;;;5023535;28;20057;-87
2023/09/20 04:04:44;;;;;;;0.10;0.10;;;;;;;;;;5018312;28;20045;-88
2023/09/20 04:07:09;;;;;;;0.10;0.10;;;;;;;;;;5035138;28;20041;-88
2023/09/20 04:09:35;;;;;;;0.10;0.10;;;;;;;;;;5033800;28;20379;-87
2023/09/20 04:12:00;;;;;;;0.10;0.10;;;;;;;;;;5018210;28;20622;-88
2023/09/20 04:14:25;;;;;;;0.10;0.10;;;;;;;;;;5017490;28;20037;-88
2023/09/20 04:16:53;;;;;;;0.10;0.10;;;;;;;;;;5036146;28;20038;-88
2023/09/20 04:19:20;;;;;;;0.10;0.10;;;;;;;17.58;nan;100055.69;5017024;28;20384;-88
2023/09/20 04:21:45;;;;;;;0.10;0.10;;;;;;;;;;5016790;28;20030;-88
2023/09/20 04:24:11;;;;;;;0.10;0.10;;;;;;;;;;5015959;28;20030;-88
2023/09/20 04:26:36;;;;;;;0.10;0.10;;;;;;;;;;5039675;28;20109;-88
2023/09/20 04:29:01;;;;;;;0.10;0.10;;;;;;;;;;5018135;28;20889;-88
2023/09/20 04:31:27;;;;;;;0.10;0.10;;;;;;;;;;5021257;28;20319;-88
2023/09/20 04:33:53;;;;;;;0.10;0.10;;;;;;;;;;5017670;28;20617;-88
2023/09/20 04:36:18;;;;;;;0.10;0.10;;;;;;;;;;5013880;28;20076;-88
2023/09/20 04:38:43;;;;;;;0.10;0.10;;;;;;;;;;5014744;28;20033;-88
2023/09/20 04:41:11;;;;;;;0.10;0.10;;;;;;;;;;5017425;28;20386;-88
2023/09/20 04:43:38;;;;;;;0.10;0.10;;;;;;;;;;5034302;28;20272;-88
2023/09/20 04:46:03;;;;;;;0.10;0.10;;;;;;;;;;5033772;28;20041;-89
2023/09/20 04:48:28;;;;;;;0.10;0.10;;;;;;;;;;5027804;28;20037;-88
2023/09/20 04:50:55;;;;;;;0.10;0.10;;;;;;;;;;5034782;28;20041;-88
2023/09/20 04:53:21;;;;;;;0.10;0.10;;;;;;;;;;5035651;28;20425;-88
2023/09/20 04:55:46;;;;;;;0.10;0.10;;;;;;;;;;5035281;28;20430;-88
2023/09/20 04:58:11;;;;;;;0.10;0.10;;;;;;;;;;5035364;28;20033;-88
2023/09/20 05:00:37;;;;;;;0.10;0.10;;;;;;;;;;5035724;28;20081;-88
2023/09/20 05:03:03;;;;;;;0.10;0.10;;;;;;;;;;5024798;28;20049;-88
2023/09/20 05:05:28;;;;;;;0.10;0.10;;;;;;;;;;5041085;28;20037;-88
2023/09/20 05:07:54;;;;;;;0.10;0.10;;;;;;;17.57;nan;100038.03;5016989;28;20047;-87
2023/09/20 05:10:19;;;;;;;0.10;0.10;;;;;;;;;;5035762;28;20360;-88
2023/09/20 05:12:47;;;;;;;0.10;0.10;;;;;;;;;;5016744;28;20037;-88
2023/09/20 05:15:13;;;;;;;0.10;0.10;;;;;;;;;;5033482;28;20792;-87
2023/09/20 05:17:38;;;;;;;0.10;0.10;;;;;;;;;;5040321;28;20040;-88
2023/09/20 05:20:05;;;;;;;0.10;0.10;;;;;;;;;;5016796;28;20038;-88
2023/09/20 05:22:30;;;;;;;0.10;0.10;;;;;;;;;;5013265;28;20924;-88
2023/09/20 05:24:57;;;;;;;0.10;0.10;;;;;;;;;;5032587;28;20307;-88
2023/09/20 05:27:23;;;;;;;0.10;0.10;;;;;;;;;;5021241;28;20030;-89
2023/09/20 05:29:53;;;;;;;0.10;0.10;;;;;;;;;;5015477;28;20422;-87
2023/09/20 05:32:19;;;;;;;0.10;0.10;;;;;;;;;;5014089;28;20404;-86
2023/09/20 05:34:46;;;;;;;0.00;0.00;;;;;;;;;;5015241;28;20553;-87
2023/09/20 05:37:11;;;;;;;0.10;0.10;;;;;;;;;;5016579;28;20044;-87
2023/09/20 05:39:49;;;;;;;0.10;0.10;;;;;;;;;;5016010;28;20025;-88
2023/09/20 05:42:15;;;;;;;0.10;0.10;;;;;;;;;;5000033;28;20048;-87
2023/09/20 06:05:19;;;;;;;0.10;0.10;;;;;;;19.62;nan;100183.63;5058887;28;20041;-86
2023/09/20 06:36:07;;;;;;;0.10;0.10;;;;;;;20.32;nan;100070.59;5070984;28;20017;-88
2023/09/20 06:38:34;;;;;;;0.10;0.10;;;;;;;;;;5034565;28;20052;-87
2023/09/20 06:41:05;;;;;;;0.10;0.10;;;;;;;19.93;nan;100057.44;5064990;28;20025;-87
2023/09/20 06:43:30;;;;;;;0.10;0.10;;;;;;;;;;5054240;28;20462;-86
2023/09/20 06:45:56;;;;;;;0.10;0.10;;;;;;;;;;5069615;28;20056;-87
2023/09/20 06:48:22;;;;;;;0.10;0.10;;;;;;;;;;5083218;22;20041;-86
2023/09/20 06:50:52;;;;;;;0.05;0.05;;;;;;;19.73;nan;100046.94;5047971;28;20409;-86
2023/09/20 06:53:17;;;;;;;0.00;0.00;;;;;;;;;;5034220;28;20039;-88
2023/09/20 06:55:43;;;;;;;0.00;0.00;;;;;;;;;;5037733;28;20037;-92
2023/09/20 06:58:08;;;;;;;0.10;0.10;;;;;;;;;;5053463;28;20276;-91
2023/09/20 07:00:35;;;;;;;0.10;0.10;;;;;;;20.36;nan;100059.16;5049750;28;20038;-90
2023/09/20 07:03:02;;;;;;;0.10;0.10;;;;;;;20.86;nan;100055.38;5044510;28;20256;-90
2023/09/20 07:05:28;;;;;;;0.10;0.10;;;;;;;;;;5057898;28;20032;-89
2023/09/20 07:07:53;;;;;;;0.00;0.00;;;;;;;;;;5044448;28;20511;-87
2023/09/20 07:10:19;;;;;;;0.10;0.10;;;;;;;;;;5037419;28;20035;-87
2023/09/20 07:12:44;;;;;;;0.10;0.10;;;;;;;23.39;nan;100050.13;5031658;28;20038;-88
2023/09/20 07:15:14;;;;;;;0.10;0.10;;;;;;;23.32;nan;100025.22;5032433;28;20034;-88
2023/09/20 07:17:40;;;;;;;0.10;0.10;;;;;;;;;;5022105;28;20029;-88
2023/09/20 07:20:17;;;;;;;0.00;0.00;;;;;;;22.52;nan;100019.06;5024625;28;20034;-87
2023/09/20 07:22:43;;;;;;;0.00;0.00;;;;;;;;;;5026605;28;20058;-87
2023/09/20 07:25:16;;;;;;;0.00;0.00;;;;;;;;;;5017657;28;20410;-86
2023/09/20 07:27:44;;;;;;;0.10;0.10;;;;;;;22.34;nan;100038.16;5018330;28;20114;-86
2023/09/20 07:30:14;;;;;;;0.05;0.05;;;;;;;;;;5024405;28;20033;-89
2023/09/20 07:32:40;;;;;;;0.10;0.10;;;;;;;;;;5033927;28;20029;-87
2023/09/20 07:35:19;;;;;;;0.00;0.00;;;;;;;;;;5032720;28;20171;-86
2023/09/20 07:37:47;;;;;;;0.00;0.00;;;;;;;22.13;nan;100063.84;5039889;28;20041;-85
2023/09/20 07:40:12;;;;;;;0.00;0.00;;;;;;;;;;5032289;28;20037;-85
2023/09/20 07:42:37;;;;;;;0.00;0.00;;;;;;;;;;5028635;28;20029;-87
2023/09/20 07:45:12;;;;;;;0.00;0.00;;;;;;;;;;5022776;28;20040;-85
2023/09/20 07:47:39;;;;;;;0.10;0.10;;;;;;;;;;5025088;28;20025;-87
2023/09/20 07:50:06;;;;;;;0.00;0.00;;;;;;;22.80;nan;100068.59;5032861;28;20029;-87
2023/09/20 07:52:35;;;;;;;0.00;0.00;;;;;;;22.87;nan;100047.69;5052876;28;20029;-87
2023/09/20 07:55:04;;;;;;;0.00;0.00;;;;;;;;;;5035084;28;20312;-87
2023/09/20 07:57:32;;;;;;;0.00;0.00;;;;;;;23.36;nan;100056.03;5034863;28;20048;-87
2023/09/20 08:00:00;;;;;;;0.00;0.00;;;;;;;;;;5040173;28;20033;-86
2023/09/20 08:02:26;;;;;;;0.00;0.00;;;;;;;;;;5039323;28;20041;-86
2023/09/20 08:04:51;;;;;;;0.00;0.00;;;;;;;;;;5039894;28;20033;-87
2023/09/20 08:07:17;;;;;;;0.10;0.10;;;;;;;;;;5039280;28;20056;-87
2023/09/20 08:09:46;;;;;;;0.10;0.10;;;;;;;;;;5039332;28;20029;-88
2023/09/20 08:12:11;;;;;;;0.00;0.00;;;;;;;;;;5054936;28;20037;-87
2023/09/20 08:14:37;;;;;;;0.10;0.10;;;;;;;;;;5037917;28;20060;-87
2023/09/20 08:19:46;;;;;;;0.00;0.00;;;;;;;25.91;nan;100072.28;5055596;28;20036;-87
2023/09/20 08:22:15;;;;;;;0.00;0.00;;;;;;;;;;5038320;28;20083;-88
2023/09/20 09:00:24;;;;;;;0.00;0.00;;;;;;;27.00;nan;100023.41;5036053;28;20117;-87
2023/09/20 09:03:09;;;;;;;0.00;0.00;;;;;;;;;;5030762;28;20051;-88
2023/09/20 09:05:34;;;;;;;0.00;0.00;;;;;;;27.53;nan;100015.75;5033534;28;20112;-88
2023/09/20 09:08:10;;;;;;;0.00;0.00;;;;;;;;;;5034122;28;20083;-88
2023/09/20 09:10:38;;;;;;;;;;;;;;;29.10;nan;100095.91;5034857;28;20107;-87
2023/09/20 09:13:04;;;;;;;0.00;0.00;;;;;;;;;;5035167;28;20008;-86
2023/09/20 09:15:30;;;;;;;0.00;0.00;;;;;;;28.65;nan;100063.31;5049720;28;20375;-88
2023/09/20 09:17:55;;;;;;;0.00;0.00;;;;;;;;;;5046683;28;20037;-87
2023/09/20 09:20:21;;;;;;;0.00;0.00;;;;;;;27.69;nan;100085.19;5033006;28;20037;-86
2023/09/20 09:22:47;;;;;;;0.00;0.00;;;;;;;27.85;nan;100011.84;5015521;28;20029;-87
2023/09/20 09:25:18;;;;;;;0.00;0.00;;;;;;;28.19;nan;100025.50;5043116;28;20398;-87
2023/09/20 09:27:43;;;;;;;0.00;0.00;;;;;;;29.30;nan;100081.28;5028016;28;20111;-86
2023/09/20 09:30:14;;;;;;;0.00;0.00;;;;;;;30.23;nan;100079.13;5037313;28;20505;-89
2023/09/20 09:32:41;;;;;;;;;;;;;;;31.01;nan;100077.72;5034226;28;20033;-88
2023/09/20 09:35:07;;;;;;;0.00;0.00;;;;;;;31.35;nan;100114.00;5047786;28;19924;-89
2023/09/20 09:37:34;;;;;;;0.00;0.00;;;;;;;30.45;nan;100011.16;5015388;28;20568;-89
2023/09/20 09:40:00;;;;;;;0.00;0.00;;;;;;;;;;5027585;28;20092;-86
2023/09/20 09:42:28;;;;;;;0.00;0.00;;;;;;;28.22;nan;100064.91;5032867;28;20132;-87
2023/09/20 09:44:54;;;;;;;0.00;0.00;;;;;;;;;;5051154;28;20105;-87
2023/09/20 09:47:20;;;;;;;0.00;0.00;;;;;;;27.16;nan;100044.03;5038874;28;20403;-86
2023/09/20 09:49:51;;;;;;;0.00;0.00;;;;;;;26.84;nan;100053.28;5020772;28;20549;-87
2023/09/20 09:52:17;;;;;;;;;;;;;;;26.72;nan;100049.19;5032293;28;20051;-86
2023/09/20 09:54:44;;;;;;;0.00;0.00;;;;;;;;;;5037804;28;20008;-87
2023/09/20 09:57:11;;;;;;;0.00;0.00;;;;;;;26.81;nan;100042.97;5033528;28;20118;-89
2023/09/20 09:59:36;;;;;;;0.00;0.00;;;;;;;27.02;nan;100032.91;5043914;28;20076;-87
2023/09/20 10:02:03;;;;;;;0.00;0.00;;;;;;;27.51;nan;100029.59;5022897;28;20444;-88
2023/09/20 10:04:30;;;;;;;0.00;0.00;;;;;;;27.77;nan;100032.22;5033701;28;20029;-87
2023/09/20 10:07:10;;;;;;;0.00;0.00;;;;;;;28.11;nan;100054.09;5033717;28;20044;-87
2023/09/20 10:09:39;;;;;;;0.00;0.00;;;;;;;28.08;nan;100038.34;5046207;28;20426;-86
2023/09/20 10:12:05;;;;;;;0.00;0.00;;;;;;;28.23;nan;100036.63;5013060;28;20053;-87
2023/09/20 10:14:30;;;;;;;0.00;0.00;;;;;;;28.87;nan;100038.38;5036263;28;20037;-86
2023/09/20 10:16:56;;;;;;;0.00;0.00;;;;;;;;;;5015224;28;20030;-87
2023/09/20 10:19:23;;;;;;;0.00;0.00;;;;;;;30.14;nan;100032.63;5033209;28;20060;-86
2023/09/20 10:22:08;;;;;;;0.00;0.00;;;;;;;30.18;nan;100017.28;5018557;28;20057;-87
2023/09/20 10:24:53;;;;;;;0.00;0.00;;;;;;;30.55;nan;100099.44;5023857;28;20049;-87
2023/09/20 10:27:19;;;;;;;0.00;0.00;;;;;;;31.13;nan;100019.88;5023632;28;20383;-87
2023/09/20 10:30:09;;;;;;;0.00;0.00;;;;;;;32.16;nan;100029.59;5044860;28;20051;-87
2023/09/20 10:32:54;;;;;;;0.00;0.00;;;;;;;33.77;nan;100021.34;5026685;28;20036;-86
2023/09/20 10:35:33;;;;;;;0.00;0.00;;;;;;;35.23;nan;100028.22;5025605;28;20045;-87
2023/09/20 10:38:24;;;;;;;0.00;0.00;;;;;;;35.34;nan;100058.91;5049742;28;20059;-89
2023/09/20 10:40:55;;;;;;;0.00;0.00;;;;;;;35.19;nan;100030.03;5020348;28;20134;-88
2023/09/20 10:43:35;;;;;;;;;;;;;;;34.33;nan;100026.28;5031559;28;20037;-87
2023/09/20 10:46:18;;;;;;;0.00;0.00;;;;;;;33.78;nan;100016.69;5014531;28;19913;-87
2023/09/20 10:48:49;;;;;;;0.00;0.00;;;;;;;33.92;nan;100017.34;5030663;28;20168;-87
2023/09/20 10:51:33;;;;;;;0.00;0.00;;;;;;;;;;5043416;28;20033;-87
2023/09/20 10:53:58;;;;;;;0.00;0.00;;;;;;;35.75;nan;100021.66;5030749;28;20383;-87
2023/09/20 10:56:42;;;;;;;;;;;;;;;36.06;nan;100013.03;5015336;28;20029;-87
2023/09/20 10:59:12;;;;;;;;;;;;;;;35.59;nan;100005.72;5024876;28;19920;-87
2023/09/20 11:01:37;;;;;;;;;;;;;;;35.82;nan;100008.97;5031940;28;19947;-88
2023/09/20 11:04:07;;;;;;;;;;;;;;;35.66;nan;100006.03;5019135;28;19952;-87
2023/09/20 11:06:32;;;;;;;;;;;;;;;35.83;nan;100004.31;5013974;28;19912;-88
2023/09/20 11:08:58;;;;;;;;;;;;;;;36.43;nan;99999.47;5014215;28;19995;-88
2023/09/20 11:11:24;;;;;;;;;;;;;;;36.76;nan;100000.28;5014105;28;19917;-88
2023/09/20 11:13:49;;;;;;;;;;;;;;;37.25;nan;99996.78;5028636;28;19917;-87
2023/09/20 11:16:18;;;;;;;;;;;;;;;37.63;nan;99994.84;5018167;28;19913;-88
2023/09/20 11:18:45;;;;;;;;;;;;;;;37.04;nan;99990.56;5012875;28;19913;-90
2023/09/20 11:21:10;;;;;;;;;;;;;;;37.42;nan;99987.47;5047446;28;20058;-88
2023/09/20 11:23:39;;;;;;;;;;;;;;;37.63;nan;99975.53;5022114;28;20011;-90
2023/09/20 11:26:04;;;;;;;;;;;;;;;37.32;nan;99963.94;5059951;28;19913;-88
2023/09/20 11:28:30;;;;;;;;;;;;;;;36.93;nan;99971.72;5029076;28;19921;-90
2023/09/20 11:30:56;;;;;;;;;;;;;;;36.26;nan;99962.69;5028173;28;19920;-88
2023/09/20 11:33:27;;;;;;;;;;;;;;;36.03;nan;99959.47;5015412;28;20463;-87
2023/09/20 11:35:52;;;;;;;;;;;;;;;35.69;nan;99966.84;5028729;28;19913;-87
2023/09/20 11:38:17;;;;;;;;;;;;;;;35.47;nan;99953.41;5023926;28;19913;-88
2023/09/20 11:40:43;;;;;;;;;;;;;;;34.53;nan;99947.91;5023314;28;19913;-88
2023/09/20 11:43:46;;;;;;;;;;;;;;;33.95;nan;99939.09;5013364;28;19912;-90
2023/09/20 11:46:33;;;;;;;;;;;;;;;33.13;nan;99930.53;5021262;28;19939;-89
2023/09/20 11:48:59;;;;;;;;;;;;;;;32.52;nan;99943.94;5021349;28;20378;-89
2023/09/20 11:51:25;;;;;;;;;;;;;;;32.04;nan;99944.53;5028468;28;19927;-90
2023/09/20 11:53:51;;;;;;;;;;;;;;;31.49;nan;99929.06;5037612;28;20278;-88
2023/09/20 11:56:23;;;;;;;;;;;;;;;31.01;nan;99935.72;5037923;28;19919;-88
2023/09/20 11:58:49;;;;;;;;;;;;;;;30.72;nan;99926.97;5037132;28;19929;-88
2023/09/20 12:01:14;;;;;;;;;;;;;;;30.22;nan;99928.34;5054075;28;19997;-87
2023/09/20 12:03:40;;;;;;;;;;;;;;;29.87;nan;99923.41;5036254;28;19970;-87
2023/09/20 12:06:08;;;;;;;;;;;;;;;29.47;nan;99915.47;5047542;28;19955;-86
2023/09/20 12:08:33;;;;;;;;;;;;;;;28.87;nan;99918.63;5041733;28;19917;-87
2023/09/20 12:10:59;;;;;;;;;;;;;;;28.39;nan;99907.63;5054190;28;19935;-88
2023/09/20 12:13:24;;;;;;;;;;;;;;;28.01;nan;99907.38;5045053;28;19925;-87
2023/09/20 12:15:51;;;;;;;0.00;0.00;;;;;;;27.85;nan;99859.69;5047086;28;19921;-88
2023/09/20 12:18:16;;;;;;;0.00;0.00;;;;;;;;;;5052290;28;20052;-88
2023/09/20 12:20:41;;;;;;;0.00;0.00;;;;;;;;;;5033781;28;20029;-88
2023/09/20 12:23:06;;;;;;;0.00;0.00;;;;;;;;;;5034208;28;20470;-88
2023/09/20 12:25:32;;;;;;;0.00;0.00;;;;;;;27.51;nan;99887.56;5045189;28;20468;-87
2023/09/20 12:27:58;;;;;;;0.00;0.00;;;;;;;27.45;nan;99867.75;5036134;28;20041;-88
2023/09/20 12:30:27;;;;;;;0.00;0.00;;;;;;;;;;5049538;28;20037;-87
2023/09/20 12:32:53;;;;;;;0.00;0.00;;;;;;;27.22;nan;99847.53;5035329;28;20132;-87
2023/09/20 12:35:18;;;;;;;0.00;0.00;;;;;;;;;;5034989;28;20127;-87
2023/09/20 12:37:44;;;;;;;0.00;0.00;;;;;;;27.09;nan;99839.97;5032305;28;20037;-87
2023/09/20 12:40:10;;;;;;;0.00;0.00;;;;;;;26.99;nan;99831.88;5034570;28;20029;-87
2023/09/20 12:42:37;;;;;;;0.00;0.00;;;;;;;;;;5053474;28;20271;-88
2023/09/20 12:45:05;;;;;;;0.00;0.00;;;;;;;26.83;nan;99829.19;5020757;28;20112;-87
2023/09/20 12:47:32;;;;;;;0.00;0.00;;;;;;;26.76;nan;99808.88;5032346;28;20037;-88
2023/09/20 12:49:57;;;;;;;0.00;0.00;;;;;;;;;;5048766;28;20041;-87
2023/09/20 12:52:22;;;;;;;0.00;0.00;;;;;;;;;;5025093;28;20173;-89
2023/09/20 12:54:48;;;;;;;0.00;0.00;;;;;;;;;;5053787;28;20033;-89
2023/09/20 12:57:13;;;;;;;0.00;0.00;;;;;;;26.55;nan;99827.13;5053173;28;20037;-88
2023/09/20 12:59:39;;;;;;;0.00;0.00;;;;;;;;;;5036473;28;20037;-88
2023/09/20 13:02:04;;;;;;;0.00;0.00;;;;;;;26.58;nan;99810.31;5054083;28;20029;-88
2023/09/20 13:04:29;;;;;;;0.00;0.00;;;;;;;;;;5053784;28;20067;-89
2023/09/20 13:06:55;;;;;;;0.00;0.00;;;;;;;;;;5053689;28;20033;-88
2023/09/20 13:09:21;;;;;;;0.00;0.00;;;;;;;;;;5035882;28;20032;-88
2023/09/20 13:11:48;;;;;;;0.00;0.00;;;;;;;26.62;nan;99784.25;5052532;28;20414;-88
2023/09/20 13:14:19;;;;;;;0.00;0.00;;;;;;;26.59;nan;99773.97;5051510;28;20091;-89
2023/09/20 13:16:47;;;;;;;0.00;0.00;;;;;;;26.56;nan;99785.38;5052854;28;20574;-88
2023/09/20 13:19:12;;;;;;;0.00;0.00;;;;;;;26.53;nan;99780.44;5031451;28;20030;-89
2023/09/20 13:21:38;;;;;;;0.00;0.00;;;;;;;;;;5035103;28;20067;-88
2023/09/20 13:24:06;;;;;;;0.00;0.00;;;;;;;26.54;nan;99739.53;5046846;28;20034;-88
2023/09/20 13:26:31;;;;;;;0.00;0.00;;;;;;;26.54;nan;99771.28;5036952;28;20031;-88
2023/09/20 13:28:56;;;;;;;0.00;0.00;;;;;;;;;;5048600;28;20030;-89
2023/09/20 13:31:22;;;;;;;0.00;0.00;;;;;;;;;;5052995;28;20037;-89
2023/09/20 13:33:50;;;;;;;0.00;0.00;;;;;;;;;;5023189;28;20269;-89
2023/09/20 13:36:15;;;;;;;0.00;0.00;;;;;;;;;;5050675;28;20294;-88
2023/09/20 13:38:41;;;;;;;0.00;0.00;;;;;;;26.44;nan;99751.19;5053373;28;20486;-89
2023/09/20 13:41:06;;;;;;;0.00;0.00;;;;;;;26.35;nan;99741.22;5052958;28;20483;-89
2023/09/20 13:43:32;;;;;;;0.00;0.00;;;;;;;26.30;nan;99722.25;5034916;28;20025;-89
2023/09/20 13:45:57;;;;;;;0.00;0.00;;;;;;;;;;5050199;28;20508;-88
2023/09/20 13:48:23;;;;;;;0.00;0.00;;;;;;;26.27;nan;99697.31;5023223;28;20064;-89
2023/09/20 13:50:48;;;;;;;0.00;0.00;;;;;;;26.17;nan;99708.19;5047247;28;20059;-89
2023/09/20 13:53:14;;;;;;;0.00;0.00;;;;;;;26.17;nan;99743.44;5051774;28;20132;-89
2023/09/20 13:55:39;;;;;;;0.00;0.00;;;;;;;;;;5031331;28;20029;-89
2023/09/20 13:58:04;;;;;;;0.00;0.00;;;;;;;;;;5039861;28;20044;-88
2023/09/20 14:00:30;;;;;;;0.00;0.00;;;;;;;;;;5050969;28;20071;-87
2023/09/20 14:02:55;;;;;;;0.00;0.00;;;;;;;;;;5026699;28;20548;-87
2023/09/20 14:05:21;;;;;;;0.00;0.00;;;;;;;-145.28;100.00;65946.44;5026859;28;20037;-87
2023/09/20 14:07:47;;;;;;;0.00;0.00;;;;;;;;;;5036440;28;20025;-88
2023/09/20 14:10:16;;;;;;;0.00;0.00;;;;;;;26.17;nan;99708.19;5050211;28;20087;-86
2023/09/20 14:12:43;;;;;;;0.00;0.00;;;;;;;26.17;nan;99716.31;5049714;28;20047;-87
2023/09/20 14:15:11;;;;;;;0.00;0.00;;;;;;;26.12;nan;99704.66;5019229;28;20184;-88
2023/09/20 14:17:36;;;;;;;0.00;0.00;;;;;;;;;;5022798;28;20029;-87
2023/09/20 14:20:09;;;;;;;0.00;0.00;;;;;;;26.04;nan;99706.06;5039571;28;20552;-86
2023/09/20 14:22:34;;;;;;;0.00;0.00;;;;;;;;;;5034127;28;20043;-87
2023/09/20 14:24:59;;;;;;;0.00;0.00;;;;;;;;;;5035288;28;20033;-86
2023/09/20 14:27:24;;;;;;;0.00;0.00;;;;;;;;;;5035799;28;20052;-89
2023/09/20 14:29:50;;;;;;;0.00;0.00;;;;;;;;;;5043372;28;20040;-87
2023/09/20 14:32:15;;;;;;;0.00;0.00;;;;;;;;;;5034442;28;20048;-86
2023/09/20 14:34:40;;;;;;;0.00;0.00;;;;;;;;;;5035817;28;20419;-86
2023/09/20 14:37:05;;;;;;;0.00;0.00;;;;;;;;;;5066359;28;20072;-87
2023/09/20 14:39:31;;;;;;;0.00;0.00;;;;;;;25.92;nan;99673.03;5056773;28;20041;-89
2023/09/20 14:41:58;;;;;;;0.00;0.00;;;;;;;25.90;nan;99626.44;5074139;28;20063;-89
2023/09/20 14:44:24;;;;;;;0.00;0.00;;;;;;;25.90;nan;99659.75;5069572;28;20037;-88
2023/09/20 14:46:49;;;;;;;0.00;0.00;;;;;;;;;;5065700;28;20116;-85
2023/09/20 14:49:14;;;;;;;0.00;0.00;;;;;;;;;;5038557;28;20049;-87
2023/09/20 14:51:39;;;;;;;0.00;0.00;;;;;;;;;;5032654;28;20065;-87
2023/09/20 14:54:05;;;;;;;0.00;0.00;;;;;;;;;;5029945;28;20136;-87
2023/09/20 14:56:31;;;;;;;0.00;0.00;;;;;;;25.93;nan;99637.53;5032496;28;20322;-86
2023/09/20 14:58:56;;;;;;;0.00;0.00;;;;;;;;;;5030032;28;20380;-87